Time;durP1;ratioP1;P1;durP2;ratioP2;P2;SDS_P1;SDS_P2;PMS_P1;PMS_P2;Temp;Humidity;BMP_temperature;BMP_pressure;BME280_temperature;BME280_humidity;BME280_pressure;Samples;Min_cycle;Max_cycle;Signal;HPM_P1;HPM_P2
2023/12/07 00:01:53;;;;;;;88.68;5.85;;;;;;;20.84;51.36;99500.44;7310638;19;130395;-39
2023/12/07 00:04:18;;;;;;;51.05;4.53;;;;;;;20.86;51.66;99501.13;7312754;19;129276;-39
2023/12/07 00:06:43;;;;;;;46.65;4.43;;;;;;;20.83;51.57;99501.44;7311282;19;128888;-38
2023/12/07 00:09:09;;;;;;;150.65;8.07;;;;;;;20.83;51.62;99490.13;7309947;19;129584;-38
2023/12/07 00:11:34;;;;;;;60.78;4.85;;;;;;;20.79;52.01;99499.22;7309813;19;131195;-39
2023/12/07 00:13:59;;;;;;;84.32;5.47;;;;;;;20.79;52.13;99504.47;7311050;19;129402;-38
2023/12/07 00:16:25;;;;;;;22.85;3.00;;;;;;;20.81;52.05;99505.16;7310924;19;130707;-39
2023/12/07 00:18:50;;;;;;;117.38;6.32;;;;;;;20.83;51.45;99506.66;7310177;19;129980;-39
2023/12/07 00:21:15;;;;;;;61.58;4.97;;;;;;;20.84;51.95;99504.88;7308710;19;129238;-38
2023/12/07 00:23:41;;;;;;;38.22;4.05;;;;;;;20.75;52.14;99509.13;7308994;19;129020;-39
2023/12/07 00:26:06;;;;;;;95.78;5.65;;;;;;;20.81;51.97;99507.75;7310503;19;128982;-39
2023/12/07 00:28:31;;;;;;;109.95;5.80;;;;;;;20.79;52.05;99505.28;7309289;19;130155;-39
2023/12/07 00:30:57;;;;;;;27.02;3.53;;;;;;;20.79;52.33;99515.75;7307242;19;130325;-39
2023/12/07 00:33:22;;;;;;;63.92;4.95;;;;;;;20.77;52.09;99507.22;7307806;19;128944;-39
2023/12/07 00:35:48;;;;;;;88.57;5.45;;;;;;;20.78;51.66;99511.47;7309881;19;129365;-39
2023/12/07 00:38:13;;;;;;;78.50;5.07;;;;;;;20.77;51.63;99507.22;7311030;19;130006;-39
2023/12/07 00:40:39;;;;;;;50.08;4.43;;;;;;;20.79;51.76;99504.47;7310238;19;130613;-39
2023/12/07 00:43:05;;;;;;;63.67;4.43;;;;;;;20.77;51.82;99499.38;7310895;19;129501;-39
2023/12/07 00:45:31;;;;;;;86.03;5.20;;;;;;;20.80;52.26;99500.88;7308981;19;129074;-39
2023/12/07 00:47:56;;;;;;;125.82;6.75;;;;;;;20.76;51.72;99500.31;7310834;19;130099;-39
2023/12/07 00:50:22;;;;;;;13.77;2.63;;;;;;;20.77;52.33;99507.22;7308221;19;130254;-39
2023/12/07 00:52:47;;;;;;;51.72;4.65;;;;;;;20.77;51.96;99502.78;7309753;19;129450;-39
2023/12/07 00:55:12;;;;;;;100.85;5.68;;;;;;;20.73;51.88;99498.81;7309937;19;128912;-39
2023/12/07 00:57:38;;;;;;;64.75;4.05;;;;;;;20.76;52.11;99504.72;7309316;19;130132;-39
2023/12/07 01:00:05;;;;;;;96.88;5.85;;;;;;;20.58;51.83;99486.28;7308544;19;130280;-40
2023/12/07 01:02:31;;;;;;;69.18;4.57;;;;;;;20.70;52.13;99506.09;7309800;19;129410;-39
2023/12/07 01:04:56;;;;;;;125.32;6.50;;;;;;;20.69;52.06;99502.66;7309301;19;128875;-39
2023/12/07 01:07:21;;;;;;;72.85;4.68;;;;;;;20.56;51.67;99490.81;7310468;19;130326;-40
2023/12/07 01:09:47;;;;;;;76.07;4.72;;;;;;;20.69;51.87;99514.91;7306869;19;130370;-39
2023/12/07 01:12:12;;;;;;;66.57;4.28;;;;;;;20.69;51.83;99520.13;7307730;19;129476;-39
2023/12/07 01:14:37;;;;;;;167.23;7.90;;;;;;;20.71;52.61;99528.63;7309908;19;129049;-39
2023/12/07 01:17:03;;;;;;;83.95;5.15;;;;;;;20.66;51.84;99522.97;7309929;19;130219;-39
2023/12/07 01:19:29;;;;;;;77.87;4.50;;;;;;;20.67;52.48;99522.03;7306880;19;130674;-39
2023/12/07 01:21:54;;;;;;;64.07;4.40;;;;;;;20.68;52.28;99534.13;7309820;19;129411;-39
2023/12/07 01:24:19;;;;;;;112.72;5.95;;;;;;;20.69;52.37;99530.56;7308315;19;128861;-39
2023/12/07 01:26:45;;;;;;;59.92;4.43;;;;;;;20.68;51.84;99539.34;7309554;19;129442;-39
2023/12/07 01:29:10;;;;;;;74.40;4.63;;;;;;;20.56;52.25;99514.34;7306278;19;130207;-39
2023/12/07 01:31:35;;;;;;;85.97;4.93;;;;;;;20.68;52.61;99534.97;7306917;19;130419;-39
2023/12/07 01:34:01;;;;;;;158.63;8.23;;;;;;;20.71;52.00;99544.31;7308893;19;129527;-39
2023/12/07 01:36:26;;;;;;;45.40;3.53;;;;;;;20.72;51.99;99540.75;7308363;19;130440;-39
2023/12/07 01:38:51;;;;;;;61.50;4.05;;;;;;;20.68;52.06;99549.81;7314105;19;130368;-38
2023/12/07 01:41:18;;;;;;;141.68;7.10;;;;;;;20.61;52.08;99530.41;7311945;19;130027;-39
2023/12/07 01:43:46;;;;;;;54.50;3.83;;;;;;;20.57;52.44;99531.66;7315603;19;129286;-39
2023/12/07 01:46:13;;;;;;;64.15;3.90;;;;;;;20.67;52.28;99553.38;7314783;19;130173;-39
2023/12/07 01:48:38;;;;;;;46.40;3.53;;;;;;;20.69;52.57;99551.47;7314748;19;130256;-39
2023/12/07 01:51:04;;;;;;;132.38;6.60;;;;;;;20.67;51.83;99553.38;7312959;19;129257;-40
2023/12/07 01:53:29;;;;;;;76.60;4.40;;;;;;;20.68;51.96;99560.25;7312350;19;129286;-40
2023/12/07 01:55:55;;;;;;;62.15;4.00;;;;;;;20.68;52.44;99555.03;7314280;19;130272;-39
2023/12/07 01:58:21;;;;;;;59.35;4.00;;;;;;;20.69;52.33;99562.72;7314027;19;129860;-39
2023/12/07 02:00:47;;;;;;;135.35;6.28;;;;;;;20.72;52.57;99556.41;7313686;19;128905;-40
2023/12/07 02:03:13;;;;;;;84.85;4.95;;;;;;;20.54;52.78;99534.53;7316201;19;129027;-39
2023/12/07 02:05:43;;;;;;;49.40;3.73;;;;;;;20.66;52.96;99556.94;7313560;19;130836;-40
2023/12/07 02:08:08;;;;;;;130.00;6.68;;;;;;;20.66;52.52;99554.34;7315320;19;129591;-39
2023/12/07 02:10:34;;;;;;;145.50;6.93;;;;;;;20.68;52.35;99560.25;7313297;19;130108;-39
2023/12/07 02:12:59;;;;;;;44.97;3.40;;;;;;;20.67;52.23;99561.22;7314919;19;129159;-40
2023/12/07 02:15:24;;;;;;;50.85;3.83;;;;;;;20.65;52.60;99568.38;7314305;19;128983;-40
2023/12/07 02:18:06;;;;;;;47.70;3.33;;;;;;;20.67;52.46;99571.69;7314286;19;130367;-39
2023/12/07 02:20:58;;;;;;;74.95;4.53;;;;;;;20.64;52.92;99566.72;7313774;19;129148;-39
2023/12/07 02:23:25;;;;;;;112.07;5.47;;;;;;;20.65;52.28;99576.19;7314234;19;128871;-39
2023/12/07 02:25:51;;;;;;;;;;;;;;;20.67;52.91;99574.28;7315093;19;129515;-39
2023/12/07 02:28:17;;;;;;;80.35;4.75;;;;;;;20.66;52.15;99578.69;7312398;19;131063;-39
2023/12/07 02:30:42;;;;;;;57.75;3.78;;;;;;;20.62;52.75;99573.88;7312971;19;129222;-39
2023/12/07 02:33:08;;;;;;;86.63;4.70;;;;;;;20.56;52.18;99556.94;7311341;19;128994;-39
2023/12/07 02:35:35;;;;;;;131.57;6.23;;;;;;;20.60;52.48;99573.16;7314466;19;130249;-39
2023/12/07 02:38:02;;;;;;;110.47;5.90;;;;;;;20.50;52.17;99551.41;7313467;19;130824;-40
2023/12/07 02:40:28;;;;;;;64.10;3.97;;;;;;;20.58;52.84;99572.47;7309739;19;129321;-40
2023/12/07 02:42:55;;;;;;;70.25;4.38;;;;;;;20.58;52.36;99575.06;7312217;19;129646;-40
2023/12/07 02:45:21;;;;;;;139.38;6.40;;;;;;;20.52;52.72;99573.00;7313835;19;132742;-39
2023/12/07 02:47:46;;;;;;;47.55;3.28;;;;;;;20.37;52.95;99553.44;7314588;19;129684;-39
2023/12/07 02:50:12;;;;;;;97.07;5.18;;;;;;;20.57;52.86;99589.94;7309252;19;128792;-39
2023/12/07 02:52:38;;;;;;;76.90;4.22;;;;;;;20.61;53.02;99590.47;7312589;19;129982;-39
2023/12/07 02:55:05;;;;;;;81.87;4.30;;;;;;;20.58;52.71;99593.34;7311815;19;129954;-39
2023/12/07 02:57:32;;;;;;;18.52;2.53;;;;;;;20.61;52.64;99590.47;7314944;19;130207;-39
2023/12/07 02:59:57;;;;;;;;;;;;;;;20.61;53.80;99593.09;7312206;19;129028;-39
2023/12/07 03:02:22;;;;;;;78.97;4.47;;;;;;;20.64;52.48;99598.06;7311857;19;128853;-39
2023/12/07 03:04:48;;;;;;;87.05;4.68;;;;;;;20.60;52.31;99601.91;7312295;19;130036;-39
2023/12/07 03:07:13;;;;;;;101.35;5.47;;;;;;;20.60;52.81;99601.91;7314301;19;130144;-39
2023/12/07 03:09:39;;;;;;;22.45;2.22;;;;;;;20.59;52.91;99602.88;7312338;19;129356;-39
2023/12/07 03:12:04;;;;;;;103.75;5.03;;;;;;;20.61;52.37;99611.38;7311894;19;129291;-39
2023/12/07 03:14:30;;;;;;;72.18;4.25;;;;;;;20.60;52.52;99605.34;7312119;19;130151;-39
2023/12/07 03:16:55;;;;;;;48.80;3.15;;;;;;;20.60;52.95;99613.19;7308806;19;129642;-39
2023/12/07 03:19:20;;;;;;;22.17;2.35;;;;;;;20.60;52.59;99612.34;7310243;19;129140;-39
2023/12/07 03:21:46;;;;;;;121.28;5.45;;;;;;;20.59;52.39;99610.69;7313297;19;129808;-39
2023/12/07 03:24:11;;;;;;;121.95;5.75;;;;;;;20.59;52.72;99613.31;7309971;19;129185;-39
2023/12/07 03:26:37;;;;;;;61.75;3.70;;;;;;;20.58;53.02;99612.47;7312635;19;129579;-39
2023/12/07 03:29:03;;;;;;;82.32;4.47;;;;;;;20.59;52.96;99613.31;7311330;19;130067;-39
2023/12/07 03:31:28;;;;;;;116.10;5.75;;;;;;;20.58;52.84;99607.25;7313450;19;128873;-40
2023/12/07 03:33:55;;;;;;;46.17;3.08;;;;;;;20.58;52.40;99616.88;7312709;19;129514;-40
2023/12/07 03:36:20;;;;;;;79.17;4.57;;;;;;;20.58;52.93;99616.88;7310107;19;131035;-39
2023/12/07 03:38:45;;;;;;;54.33;3.58;;;;;;;20.59;52.76;99619.34;7312457;19;129036;-39
2023/12/07 03:41:11;;;;;;;164.18;7.20;;;;;;;20.60;52.49;99609.72;7310499;19;130076;-40
2023/12/07 03:43:36;;;;;;;50.47;3.05;;;;;;;20.63;52.79;99609.47;7311893;19;130167;-39
2023/12/07 03:46:05;;;;;;;78.32;4.15;;;;;;;20.57;53.01;99610.84;7310838;19;131380;-39
2023/12/07 03:48:32;;;;;;;69.97;3.80;;;;;;;20.57;53.16;99617.84;7310873;19;129258;-39
2023/12/07 03:50:57;;;;;;;92.40;4.53;;;;;;;20.56;53.02;99613.59;7310233;19;129552;-40
2023/12/07 03:53:22;;;;;;;16.23;1.98;;;;;;;20.55;53.06;99619.75;7309613;19;130193;-39
2023/12/07 03:55:47;;;;;;;69.28;4.00;;;;;;;20.58;52.89;99624.69;7310343;19;129132;-39
2023/12/07 03:58:13;;;;;;;120.70;5.75;;;;;;;20.56;52.57;99622.22;7310009;19;129414;-38
2023/12/07 04:00:39;;;;;;;95.97;4.53;;;;;;;20.53;53.29;99624.28;7309167;19;129096;-38
2023/12/07 04:03:04;;;;;;;51.60;3.17;;;;;;;20.56;53.33;99618.81;7312000;19;130114;-38
2023/12/07 04:05:30;;;;;;;35.35;2.28;;;;;;;20.57;52.53;99620.44;7307904;19;130470;-39
2023/12/07 04:07:55;;;;;;;133.98;5.93;;;;;;;20.43;52.47;99597.28;7311823;19;128701;-38
2023/12/07 04:10:21;;;;;;;128.30;5.95;;;;;;;20.58;52.54;99614.25;7307794;19;129245;-37
2023/12/07 04:12:46;;;;;;;75.35;4.07;;;;;;;20.56;52.50;99618.81;7309957;19;130100;-39
2023/12/07 04:15:11;;;;;;;86.15;4.68;;;;;;;20.54;53.11;99625.94;7311125;19;130459;-39
2023/12/07 04:17:37;;;;;;;85.68;4.13;;;;;;;20.54;53.35;99628.56;7311387;19;129575;-39
2023/12/07 04:20:03;;;;;;;76.68;3.92;;;;;;;20.54;53.18;99631.16;7310582;19;128939;-40
2023/12/07 04:22:29;;;;;;;47.20;2.88;;;;;;;20.55;52.71;99640.63;7310934;19;129251;-40
2023/12/07 04:24:54;;;;;;;109.07;5.13;;;;;;;20.54;53.18;99633.78;7310542;19;130303;-38
2023/12/07 04:27:19;;;;;;;122.32;5.53;;;;;;;20.54;52.73;99631.97;7311575;19;129178;-39
2023/12/07 04:29:45;;;;;;;73.20;4.00;;;;;;;20.55;53.29;99638.03;7311689;19;129193;-37
2023/12/07 04:32:10;;;;;;;69.15;3.85;;;;;;;20.56;52.64;99645.72;7308441;19;130039;-40
2023/12/07 04:34:36;;;;;;;63.55;3.45;;;;;;;20.40;53.10;99618.44;7310056;19;129664;-39
2023/12/07 04:37:01;;;;;;;100.50;4.68;;;;;;;20.52;52.88;99646.97;7311426;19;129568;-39
2023/12/07 04:39:27;;;;;;;68.38;3.92;;;;;;;20.53;52.70;99645.16;7311030;19;130353;-39
2023/12/07 04:41:53;;;;;;;45.05;3.03;;;;;;;20.51;53.02;99649.72;7310748;19;130632;-39
2023/12/07 04:44:19;;;;;;;104.95;5.22;;;;;;;20.46;52.70;99655.31;7307979;19;129728;-39
2023/12/07 04:46:44;;;;;;;92.10;4.60;;;;;;;20.45;53.38;99660.66;7310263;19;129719;-39
2023/12/07 04:49:10;;;;;;;99.07;4.80;;;;;;;20.47;53.36;99662.19;7309497;19;129648;-39
2023/12/07 04:51:35;;;;;;;45.63;3.03;;;;;;;20.50;53.23;99667.16;7311242;19;130101;-38
2023/12/07 04:54:00;;;;;;;126.80;5.72;;;;;;;20.48;53.06;99668.22;7306260;19;130238;-37
2023/12/07 04:56:26;;;;;;;71.38;3.80;;;;;;;20.46;53.12;99665.75;7309250;19;129239;-40
2023/12/07 04:58:51;;;;;;;48.67;2.97;;;;;;;20.44;53.01;99662.44;7310043;19;128616;-39
2023/12/07 05:01:18;;;;;;;82.70;4.35;;;;;;;20.44;53.26;99661.63;7307246;19;130147;-38
2023/12/07 05:03:44;;;;;;;91.32;4.30;;;;;;;20.45;53.29;99668.50;7310601;19;130293;-39
2023/12/07 05:06:10;;;;;;;80.75;4.05;;;;;;;20.31;52.95;99640.94;7306042;19;129620;-39
2023/12/07 05:08:35;;;;;;;65.93;3.53;;;;;;;20.46;53.18;99676.19;7308709;19;129649;-38
2023/12/07 05:11:00;;;;;;;50.88;2.90;;;;;;;20.45;52.94;99682.41;7304268;19;129397;-38
2023/12/07 05:13:26;;;;;;;167.05;7.38;;;;;;;20.46;53.20;99681.41;7312479;19;129361;-39
2023/12/07 05:15:51;;;;;;;56.85;3.25;;;;;;;20.48;53.37;99676.91;7313529;19;129106;-39
2023/12/07 05:18:16;;;;;;;95.43;4.63;;;;;;;20.46;53.11;99675.41;7313935;19;129241;-39
2023/12/07 05:20:42;;;;;;;93.05;4.35;;;;;;;20.45;53.33;99681.56;7312980;19;130232;-40
2023/12/07 05:23:08;;;;;;;131.57;5.75;;;;;;;20.29;53.45;99652.50;7315008;19;130265;-40
2023/12/07 05:25:33;;;;;;;60.10;3.28;;;;;;;20.45;52.98;99673.72;7316536;19;128808;-39
2023/12/07 05:27:59;;;;;;;135.45;6.38;;;;;;;20.46;52.56;99678.00;7314065;19;129310;-38
2023/12/07 05:30:24;;;;;;;103.18;5.03;;;;;;;20.46;52.97;99675.41;7312786;19;129377;-39
2023/12/07 05:32:50;;;;;;;111.55;4.97;;;;;;;20.47;53.12;99677.03;7314575;19;131105;-40
2023/12/07 05:35:16;;;;;;;103.90;4.65;;;;;;;20.46;53.38;99681.41;7314643;19;129299;-40
2023/12/07 05:37:41;;;;;;;71.88;3.72;;;;;;;20.45;53.03;99681.56;7314795;19;129842;-38
2023/12/07 05:40:07;;;;;;;104.25;4.70;;;;;;;20.30;53.22;99669.78;7311457;19;129134;-39
2023/12/07 05:42:33;;;;;;;90.25;5.05;;;;;;;20.35;54.10;99685.91;7312666;19;130658;-39
2023/12/07 05:44:59;;;;;;;70.88;3.67;;;;;;;20.32;53.71;99699.22;7313461;19;131116;-39
2023/12/07 05:47:24;;;;;;;69.67;3.90;;;;;;;20.32;52.93;99694.00;7313805;19;129891;-38
2023/12/07 05:49:50;;;;;;;98.80;4.50;;;;;;;20.42;52.55;99705.31;7314200;19;129295;-37
2023/12/07 05:52:15;;;;;;;104.18;4.85;;;;;;;20.44;52.59;99692.97;7313425;19;131001;-40
2023/12/07 05:54:46;;;;;;;54.08;2.88;;;;;;;20.53;52.44;99697.41;7315127;19;129449;-40
2023/12/07 05:57:12;;;;;;;70.35;3.90;;;;;;;20.52;52.60;99695.75;7316001;19;129316;-39
2023/12/07 05:59:38;;;;;;;81.57;3.78;;;;;;;20.54;52.13;99694.66;7315016;19;132562;-39
2023/12/07 06:02:04;;;;;;;101.85;4.70;;;;;;;20.52;52.62;99693.16;7315972;19;130298;-39
2023/12/07 06:04:30;;;;;;;123.85;5.55;;;;;;;20.48;52.15;99695.19;7313912;19;129185;-39
2023/12/07 06:06:55;;;;;;;98.95;4.53;;;;;;;20.32;52.57;99665.28;7311425;19;129348;-39
2023/12/07 06:09:20;;;;;;;150.25;6.43;;;;;;;20.48;52.29;99691.72;7313147;19;130859;-39
2023/12/07 06:11:46;;;;;;;59.20;3.08;;;;;;;20.48;52.87;99694.34;7312678;19;130128;-39
2023/12/07 06:14:11;;;;;;;75.72;3.92;;;;;;;20.45;52.70;99695.44;7310362;19;130408;-38
2023/12/07 06:16:37;;;;;;;75.47;3.50;;;;;;;20.49;52.41;99709.06;7310041;19;130536;-40
2023/12/07 06:19:03;;;;;;;126.70;5.53;;;;;;;20.55;52.73;99711.16;7311190;19;131361;-41
2023/12/07 06:21:31;;;;;;;138.82;6.28;;;;;;;20.49;52.95;99712.50;7312584;19;130399;-40
2023/12/07 06:23:58;;;;;;;83.05;3.85;;;;;;;20.53;52.97;99713.06;7308890;19;129323;-39
2023/12/07 06:26:24;;;;;;;155.68;6.57;;;;;;;20.46;52.30;99701.50;7310490;19;128896;-40
2023/12/07 06:28:49;;;;;;;307.35;12.02;;;;;;;20.48;52.32;99712.63;7297783;19;132051;-39
2023/12/07 06:31:15;;;;;;;269.33;10.35;;;;;;;20.49;52.39;99720.34;7285725;19;132681;-40
2023/12/07 06:33:41;;;;;;;275.07;10.73;;;;;;;20.50;52.90;99723.78;7280023;19;130108;-39
2023/12/07 06:36:06;;;;;;;479.02;19.45;;;;;;;20.56;52.77;99729.31;7280475;19;130715;-40
2023/12/07 06:38:32;;;;;;;394.40;16.35;;;;;;;20.54;53.09;99726.00;7280565;19;130623;-40
2023/12/07 06:40:57;;;;;;;299.35;12.02;;;;;;;20.51;52.62;99720.22;7277632;19;131647;-41
2023/12/07 06:48:11;;;;;;;334.52;17.08;;;;;;;20.35;54.72;99735.50;7287488;19;130540;-70
2023/12/07 06:50:38;;;;;;;;;;;;;;;20.40;55.10;99733.34;7115442;19;3157795;-71
2023/12/07 06:53:03;;;;;;;425.08;19.42;;;;;;;20.84;53.27;99727.78;7274485;19;131872;-70
2023/12/07 06:55:30;;;;;;;398.27;18.77;;;;;;;21.21;51.56;99725.47;7289215;19;132316;-64
2023/12/07 06:57:55;;;;;;;;;;;;;;;21.44;50.80;99732.94;7280596;19;132991;-68
2023/12/07 07:00:21;;;;;;;455.73;21.13;;;;;;;21.68;50.96;99730.75;7290355;19;130915;-66
2023/12/07 07:02:46;;;;;;;496.25;24.40;;;;;;;22.03;50.51;99745.97;7294316;19;130874;-71
2023/12/07 07:05:12;;;;;;;401.30;18.65;;;;;;;22.22;49.49;99734.63;7289832;19;132746;-71
2023/12/07 07:10:05;;;;;;;438.70;19.25;;;;;;;22.62;49.25;99736.09;7297523;19;129822;-37
2023/12/07 07:12:31;;;;;;;351.73;17.67;;;;;;;22.70;45.52;99733.59;7299143;19;130401;-40
2023/12/07 07:14:56;;;;;;;274.98;13.50;;;;;;;22.65;47.31;99737.59;7307383;19;133276;-36
2023/12/07 07:17:21;;;;;;;451.55;21.42;;;;;;;22.78;48.04;99738.94;7283837;19;131215;-38
2023/12/07 07:19:47;;;;;;;474.98;21.58;;;;;;;22.76;47.51;99716.44;7285347;19;129837;-37
2023/12/07 07:22:12;;;;;;;384.05;17.20;;;;;;;23.07;47.41;99738.81;7287839;19;131059;-37
2023/12/07 07:24:38;;;;;;;430.58;19.73;;;;;;;23.15;47.58;99737.09;7284803;19;131388;-37
2023/12/07 07:27:03;;;;;;;474.27;21.37;;;;;;;23.25;47.78;99737.88;7284422;19;130440;-37
2023/12/07 07:29:29;;;;;;;467.30;22.03;;;;;;;23.29;47.16;99742.88;7285348;19;131284;-36
2023/12/07 07:31:55;;;;;;;396.70;19.58;;;;;;;23.37;47.67;99742.97;7288366;19;131574;-37
2023/12/07 07:34:21;;;;;;;508.10;23.95;;;;;;;23.38;47.21;99742.81;7283090;19;130006;-36
2023/12/07 07:36:46;;;;;;;441.42;20.60;;;;;;;23.45;47.67;99738.66;7287550;19;129905;-38
2023/12/07 07:39:13;;;;;;;434.67;19.90;;;;;;;23.55;46.88;99743.81;7288652;19;131287;-36
2023/12/07 07:41:39;;;;;;;461.35;21.55;;;;;;;23.61;46.56;99737.97;7275569;19;133879;-39
2023/12/07 07:44:04;;;;;;;143.82;8.40;;;;;;;23.42;46.53;99717.13;7317496;19;130794;-38
2023/12/07 07:46:30;;;;;;;235.45;12.13;;;;;;;23.67;46.76;99742.63;7319523;19;130007;-38
2023/12/07 07:48:55;;;;;;;222.40;10.98;;;;;;;23.73;46.75;99739.41;7323069;19;131042;-39
2023/12/07 07:51:20;;;;;;;245.05;12.10;;;;;;;23.71;46.86;99736.94;7321473;19;131266;-38
2023/12/07 07:53:46;;;;;;;199.27;9.85;;;;;;;23.66;47.26;99743.59;7320477;19;131712;-39
2023/12/07 07:56:11;;;;;;;201.00;10.95;;;;;;;23.62;46.64;99750.94;7322346;19;130101;-35
2023/12/07 07:58:36;;;;;;;143.13;7.47;;;;;;;23.48;47.53;99751.47;7305621;19;129155;-38
2023/12/07 08:01:02;;;;;;;201.67;10.27;;;;;;;23.37;45.90;99746.41;7292929;19;129347;-40
2023/12/07 08:03:27;;;;;;;227.55;11.77;;;;;;;23.27;47.02;99752.69;7293590;19;131177;-40
2023/12/07 08:05:53;;;;;;;260.52;12.60;;;;;;;23.00;48.00;99716.78;7292424;19;131107;-42
2023/12/07 08:08:18;;;;;;;212.73;10.33;;;;;;;23.14;47.83;99745.13;7292042;19;129821;-36
2023/12/07 08:10:43;;;;;;;332.13;16.08;;;;;;;23.10;48.26;99728.88;7292258;19;129987;-34
2023/12/07 08:13:08;;;;;;;132.95;6.82;;;;;;;23.41;47.25;99755.66;7294144;19;131433;-38
2023/12/07 08:15:34;;;;;;;231.60;10.70;;;;;;;23.29;47.15;99720.09;7292703;19;129555;-40
2023/12/07 08:18:00;;;;;;;215.87;10.73;;;;;;;23.49;47.36;99745.22;7293762;19;129386;-40
2023/12/07 08:20:26;;;;;;;233.37;11.33;;;;;;;23.56;47.36;99751.53;7289886;19;131494;-36
2023/12/07 08:22:51;;;;;;;151.23;7.37;;;;;;;23.61;47.39;99754.56;7293488;19;131172;-38
2023/12/07 08:25:17;;;;;;;251.00;11.68;;;;;;;23.62;47.52;99756.19;7291840;19;129865;-40
2023/12/07 08:27:44;;;;;;;177.32;8.50;;;;;;;23.71;47.14;99755.31;7291324;19;129221;-42
2023/12/07 08:30:10;;;;;;;176.93;8.30;;;;;;;23.72;47.58;99756.94;7292300;19;130124;-39
2023/12/07 08:32:36;;;;;;;167.80;8.32;;;;;;;23.81;47.50;99753.44;7296217;19;132899;-41
2023/12/07 08:35:02;;;;;;;209.30;10.00;;;;;;;23.84;47.23;99749.66;7295655;19;129039;-42
2023/12/07 08:37:28;;;;;;;193.63;9.43;;;;;;;23.90;47.33;99755.16;7292463;19;129543;-37
2023/12/07 08:39:54;;;;;;;160.77;7.60;;;;;;;23.92;47.05;99766.34;7293319;19;130532;-40
2023/12/07 08:42:19;;;;;;;190.07;9.07;;;;;;;23.95;47.15;99757.31;7292761;19;130404;-40
2023/12/07 08:44:44;;;;;;;181.52;8.07;;;;;;;24.01;47.02;99768.09;7295157;19;129230;-40
2023/12/07 08:47:10;;;;;;;157.77;7.15;;;;;;;24.02;47.38;99764.50;7294264;19;129001;-37
2023/12/07 08:49:35;;;;;;;184.53;8.83;;;;;;;24.13;46.45;99766.88;7294478;19;130060;-37
2023/12/07 08:52:02;;;;;;;185.63;9.30;;;;;;;24.14;46.29;99768.53;7295042;19;130395;-40
2023/12/07 08:54:27;;;;;;;204.10;9.77;;;;;;;24.19;46.38;99774.16;7291839;19;129531;-39
2023/12/07 08:56:52;;;;;;;132.15;6.85;;;;;;;24.21;46.39;99776.63;7295015;19;129240;-38
2023/12/07 08:59:18;;;;;;;201.77;9.37;;;;;;;24.20;47.13;99783.69;7291544;19;130095;-38
2023/12/07 09:01:43;;;;;;;244.93;10.98;;;;;;;24.34;46.21;99785.78;7293087;19;130050;-40
2023/12/07 09:04:08;;;;;;;329.37;15.30;;;;;;;24.36;46.60;99786.44;7293398;19;130293;-41
2023/12/07 09:06:35;;;;;;;215.17;10.47;;;;;;;24.35;46.89;99784.78;7292573;19;130949;-41
2023/12/07 09:09:02;;;;;;;186.10;8.68;;;;;;;24.35;46.31;99792.69;7290668;19;130398;-38
2023/12/07 09:11:27;;;;;;;270.77;12.33;;;;;;;24.41;45.60;99786.78;7284137;19;130176;-40
2023/12/07 09:13:53;;;;;;;229.25;11.23;;;;;;;24.37;41.84;99793.34;7291239;19;130587;-39
2023/12/07 09:16:18;;;;;;;226.23;11.40;;;;;;;24.37;41.65;99790.72;7285850;19;129789;-38
2023/12/07 09:18:46;;;;;;;205.27;9.57;;;;;;;24.30;41.74;99800.19;7287082;19;129837;-38
2023/12/07 09:21:11;;;;;;;260.50;12.23;;;;;;;24.31;41.31;99795.78;7287813;19;131478;-41
2023/12/07 09:23:37;;;;;;;239.03;11.87;;;;;;;24.27;41.37;99792.63;7289604;19;130239;-36
2023/12/07 09:26:03;;;;;;;199.57;10.13;;;;;;;24.34;41.69;99795.47;7289285;19;130979;-40
2023/12/07 09:28:28;;;;;;;186.00;9.57;;;;;;;24.27;41.17;99799.66;7292848;19;132101;-41
2023/12/07 09:30:54;;;;;;;244.13;11.13;;;;;;;24.14;42.05;99792.19;7292706;19;130461;-41
2023/12/07 09:33:19;;;;;;;148.98;8.27;;;;;;;24.11;43.22;99789.84;7289670;19;130916;-37
2023/12/07 09:35:45;;;;;;;166.97;8.07;;;;;;;23.94;43.82;99788.03;7290825;19;128887;-37
2023/12/07 09:38:10;;;;;;;183.63;8.67;;;;;;;23.87;44.47;99788.75;7288459;19;130160;-40
2023/12/07 09:40:35;;;;;;;228.87;10.67;;;;;;;23.81;44.79;99792.00;7292804;19;131264;-41
2023/12/07 09:43:01;;;;;;;170.33;7.90;;;;;;;23.72;45.16;99796.31;7292464;19;130002;-42
2023/12/07 09:45:26;;;;;;;125.18;6.40;;;;;;;23.72;46.09;99792.88;7293052;19;130822;-39
2023/12/07 09:47:54;;;;;;;212.63;9.60;;;;;;;23.76;45.75;99799.47;7287371;19;130439;-35
2023/12/07 09:50:24;;;;;;;197.38;9.38;;;;;;;23.79;45.56;99794.75;7290313;19;130503;-40
2023/12/07 09:52:51;;;;;;;149.82;7.63;;;;;;;23.81;46.46;99789.38;7289875;19;131214;-41
2023/12/07 09:55:17;;;;;;;177.70;8.15;;;;;;;23.90;45.98;99791.91;7290316;19;133087;-36
2023/12/07 09:57:43;;;;;;;254.60;12.03;;;;;;;23.78;46.07;99764.25;7286796;19;131284;-38
2023/12/07 10:00:13;;;;;;;221.07;9.90;;;;;;;24.11;45.81;99784.56;7290709;19;132540;-41
2023/12/07 10:02:39;;;;;;;340.33;16.02;;;;;;;24.18;46.08;99790.88;7289417;19;129378;-34
2023/12/07 10:05:06;;;;;;;161.77;7.83;;;;;;;24.22;45.35;99792.25;7289227;19;131990;-38
2023/12/07 10:07:37;;;;;;;230.40;10.70;;;;;;;24.31;45.10;99795.78;7286624;19;131271;-42
2023/12/07 10:10:04;;;;;;;250.43;11.02;;;;;;;24.41;45.31;99792.06;7289455;19;131736;-43
2023/12/07 10:12:35;;;;;;;;;;;;;;;24.29;45.86;99790.66;7287070;19;131321;-38
2023/12/07 10:15:11;;;;;;;207.73;9.73;;;;;;;24.44;45.09;99786.50;7291185;19;131580;-41
2023/12/07 10:17:56;;;;;;;216.05;10.07;;;;;;;24.48;45.32;99798.34;7286447;19;130512;-39
2023/12/07 10:20:27;;;;;;;174.18;7.97;;;;;;;24.45;45.36;99793.41;7289451;19;131302;-41
2023/12/07 10:23:07;;;;;;;226.88;9.85;;;;;;;24.59;45.75;99799.09;7285519;19;129147;-42
2023/12/07 10:25:35;;;;;;;199.38;9.02;;;;;;;24.46;45.11;99774.03;7289077;19;131416;-40
2023/12/07 10:28:01;;;;;;;218.52;9.95;;;;;;;24.48;45.43;99764.19;7281832;19;129357;-37
2023/12/07 10:30:27;;;;;;;198.17;9.23;;;;;;;24.56;45.35;99762.59;7289302;19;129379;-39
2023/12/07 10:32:53;;;;;;;167.73;7.45;;;;;;;24.67;45.03;99784.19;7286191;19;129757;-42
2023/12/07 10:35:19;;;;;;;238.63;10.23;;;;;;;24.55;45.43;99760.94;7292184;19;132395;-40
2023/12/07 10:37:45;;;;;;;217.68;10.23;;;;;;;24.60;45.66;99753.41;7288757;19;130392;-39
2023/12/07 10:40:10;;;;;;;185.37;8.50;;;;;;;24.84;45.24;99782.53;7290857;19;131155;-39
2023/12/07 10:42:37;;;;;;;229.90;10.07;;;;;;;24.84;45.21;99777.25;7287775;19;130196;-38
2023/12/07 10:45:06;;;;;;;251.30;11.15;;;;;;;24.89;45.21;99786.31;7288095;19;129642;-36
2023/12/07 10:47:35;;;;;;;207.75;9.20;;;;;;;24.92;45.15;99783.41;7289078;19;130865;-37
2023/12/07 10:50:02;;;;;;;156.90;7.43;;;;;;;24.91;45.56;99778.25;7289358;19;131507;-40
2023/12/07 10:52:32;;;;;;;134.77;6.50;;;;;;;24.99;44.72;99786.22;7291130;19;129133;-37
2023/12/07 10:55:05;;;;;;;146.18;6.93;;;;;;;25.00;45.17;99777.34;7287374;19;130483;-39
2023/12/07 10:57:34;;;;;;;220.10;9.85;;;;;;;25.05;44.74;99775.06;7289538;19;130763;-38
2023/12/07 11:00:00;;;;;;;116.82;5.72;;;;;;;24.93;45.69;99773.69;7291093;19;132736;-41
2023/12/07 11:02:27;;;;;;;;;;;;;;;24.84;45.85;99782.53;7291522;19;131062;-41
2023/12/07 11:04:56;;;;;;;179.68;8.20;;;;;;;24.64;46.26;99781.06;7286900;19;131250;-38
2023/12/07 11:07:25;;;;;;;217.93;9.35;;;;;;;24.49;46.27;99784.22;7287429;19;133158;-38
2023/12/07 11:10:00;;;;;;;220.43;9.77;;;;;;;24.37;46.91;99785.47;7287228;19;130744;-42
2023/12/07 11:12:34;;;;;;;153.18;6.90;;;;;;;24.30;47.40;99781.81;7287767;19;129532;-41
2023/12/07 11:15:02;;;;;;;198.90;8.85;;;;;;;24.29;47.41;99781.94;7286292;19;130223;-40